Time;durP1;ratioP1;P1;durP2;ratioP2;P2;SDS_P1;SDS_P2;PMS_P1;PMS_P2;Temp;Humidity;BMP_temperature;BMP_pressure;BME280_temperature;BME280_humidity;BME280_pressure;Samples;Min_cycle;Max_cycle;Signal;HPM_P1;HPM_P2
2022/07/01 00:01:41;;;;;;;5.95;2.83;;;;;;;23.39;65.21;98185.19;5032215;28;20227;-58
2022/07/01 00:04:07;;;;;;;3.88;2.50;;;;;;;23.39;65.01;98185.19;5032231;28;20178;-58
2022/07/01 00:06:33;;;;;;;6.55;3.00;;;;;;;23.30;65.34;98186.34;5031878;28;20634;-58
2022/07/01 00:08:59;;;;;;;6.53;2.88;;;;;;;23.24;65.43;98174.72;5032164;28;20181;-58
2022/07/01 00:11:24;;;;;;;3.22;2.90;;;;;;;23.17;65.82;98160.66;5032372;28;20162;-58
2022/07/01 00:13:50;;;;;;;3.85;2.67;;;;;;;23.15;65.76;98175.00;5032087;28;20642;-58
2022/07/01 00:16:15;;;;;;;5.80;3.05;;;;;;;23.10;65.81;98187.94;5032052;28;20227;-58
2022/07/01 00:18:41;;;;;;;2.80;2.60;;;;;;;23.05;66.06;98187.69;5032313;28;20256;-58
2022/07/01 00:21:07;;;;;;;3.80;2.67;;;;;;;23.12;66.05;98180.66;5032249;28;20559;-58
2022/07/01 00:23:32;;;;;;;2.80;2.60;;;;;;;23.01;66.87;98194.38;5031955;28;20192;-58
2022/07/01 00:25:58;;;;;;;3.75;2.83;;;;;;;22.84;67.28;98192.97;5031958;28;20180;-59
2022/07/01 00:28:24;;;;;;;2.60;2.40;;;;;;;22.80;67.55;98189.91;5031081;28;20169;-58
2022/07/01 00:30:49;;;;;;;3.00;2.67;;;;;;;22.90;67.05;98194.88;5031972;28;20642;-58
2022/07/01 00:33:14;;;;;;;3.22;2.72;;;;;;;22.93;66.36;98181.28;5031887;28;20211;-58
2022/07/01 00:35:40;;;;;;;3.40;2.75;;;;;;;23.00;66.32;98184.81;5032118;28;20269;-58
2022/07/01 00:38:05;;;;;;;5.60;2.67;;;;;;;22.97;66.79;98175.44;5031904;28;20210;-58
2022/07/01 00:40:31;;;;;;;5.90;2.78;;;;;;;22.89;66.51;98177.41;5032108;28;20184;-58
2022/07/01 00:42:56;;;;;;;3.60;2.80;;;;;;;22.90;66.88;98176.41;5031709;28;20681;-58
2022/07/01 00:45:22;;;;;;;3.75;2.97;;;;;;;22.89;66.89;98172.13;5032129;28;20185;-58
2022/07/01 00:47:47;;;;;;;3.40;3.10;;;;;;;22.86;67.21;98169.84;5031764;28;20185;-58
2022/07/01 00:50:14;;;;;;;8.18;3.15;;;;;;;22.79;67.50;98174.25;5031792;28;20182;-58
2022/07/01 00:52:42;;;;;;;3.60;2.40;;;;;;;22.65;68.48;98173.28;5031756;28;20182;-58
2022/07/01 00:55:09;;;;;;;3.75;2.72;;;;;;;22.66;67.80;98174.13;5032010;28;20174;-58
2022/07/01 00:57:37;;;;;;;4.22;2.85;;;;;;;22.76;67.83;98161.41;5031978;28;20181;-58
2022/07/01 01:00:06;;;;;;;3.33;3.00;;;;;;;22.74;67.72;98160.78;5031989;28;20631;-58
2022/07/01 01:02:31;;;;;;;4.15;2.47;;;;;;;22.65;68.56;98157.47;5031412;28;20260;-58
2022/07/01 01:04:57;;;;;;;3.03;2.70;;;;;;;22.56;69.08;98165.69;5031684;28;20212;-58
2022/07/01 01:07:24;;;;;;;4.07;2.85;;;;;;;22.55;69.48;98164.84;5030348;28;20209;-58
2022/07/01 01:09:50;;;;;;;3.30;3.10;;;;;;;22.45;69.69;98169.63;5031843;28;20287;-58
2022/07/01 01:12:16;;;;;;;3.08;2.88;;;;;;;22.42;69.86;98159.41;5031586;28;20654;-58
2022/07/01 01:14:46;;;;;;;3.38;3.08;;;;;;;22.41;69.71;98164.84;5031571;28;20169;-58
2022/07/01 01:17:12;;;;;;;7.53;2.75;;;;;;;22.44;69.80;98151.34;5031759;28;20177;-58
2022/07/01 01:19:38;;;;;;;2.90;2.70;;;;;;;22.34;70.58;98164.78;5034896;28;20178;-58
2022/07/01 01:22:04;;;;;;;2.63;2.42;;;;;;;22.35;69.77;98163.78;5035076;28;20207;-58
2022/07/01 01:24:29;;;;;;;5.85;3.00;;;;;;;22.44;69.10;98167.16;5035090;28;20185;-58
2022/07/01 01:26:55;;;;;;;2.78;2.50;;;;;;;22.55;68.37;98170.13;5035110;28;20177;-58
2022/07/01 01:29:20;;;;;;;5.72;2.50;;;;;;;22.56;68.61;98165.69;5035310;28;20176;-58
2022/07/01 01:31:46;;;;;;;3.28;3.00;;;;;;;22.50;68.83;98166.41;5034985;28;20200;-58
2022/07/01 01:34:12;;;;;;;5.25;2.88;;;;;;;22.47;68.51;98158.88;5035525;28;20170;-58
2022/07/01 01:36:37;;;;;;;3.00;2.70;;;;;;;22.53;68.63;98171.31;5034869;28;20253;-59
2022/07/01 01:39:14;;;;;;;2.55;2.35;;;;;;;22.46;68.56;98165.97;5033597;28;20260;-58
2022/07/01 01:41:39;;;;;;;9.15;3.03;;;;;;;22.45;68.77;98169.63;5035061;28;20172;-58
2022/07/01 01:44:04;;;;;;;2.88;2.67;;;;;;;22.38;69.24;98179.22;5035007;28;20182;-58
2022/07/01 01:46:30;;;;;;;2.65;2.45;;;;;;;22.36;69.17;98168.03;5035002;28;20205;-58
2022/07/01 01:48:57;;;;;;;3.78;2.55;;;;;;;22.43;68.87;98165.50;5034715;28;20643;-58
2022/07/01 01:51:22;;;;;;;2.58;2.47;;;;;;;22.40;68.81;98163.22;5034909;28;20277;-58
2022/07/01 01:53:48;;;;;;;4.10;2.60;;;;;;;22.33;69.11;98159.69;5034820;28;20608;-58
2022/07/01 01:56:13;;;;;;;3.33;2.55;;;;;;;22.32;69.28;98164.13;5034681;28;20174;-58
2022/07/01 01:58:42;;;;;;;3.67;3.03;;;;;;;22.23;69.41;98164.41;5034755;28;20707;-59
2022/07/01 02:01:10;;;;;;;3.05;2.80;;;;;;;22.22;69.88;98175.97;5034182;28;20738;-58
2022/07/01 02:03:36;;;;;;;3.17;2.78;;;;;;;22.18;69.63;98156.25;5034591;28;20202;-58
2022/07/01 02:06:01;;;;;;;3.58;2.50;;;;;;;22.25;69.13;98168.50;5034385;28;20308;-58
2022/07/01 02:08:26;;;;;;;5.63;2.70;;;;;;;22.23;69.45;98175.78;5034376;28;20331;-58
2022/07/01 02:10:52;;;;;;;2.95;2.75;;;;;;;22.13;69.16;98179.69;5034256;28;20673;-58
2022/07/01 02:13:17;;;;;;;4.35;2.92;;;;;;;22.02;70.08;98188.09;5034780;28;20166;-58
2022/07/01 02:15:42;;;;;;;2.75;2.55;;;;;;;21.87;70.72;98184.63;5034218;28;20180;-58
2022/07/01 02:18:08;;;;;;;4.38;2.67;;;;;;;21.85;71.10;98182.16;5034399;28;20181;-58
2022/07/01 02:20:33;;;;;;;3.00;2.67;;;;;;;21.73;71.64;98169.63;5034232;28;20178;-58
2022/07/01 02:22:59;;;;;;;4.53;2.70;;;;;;;21.75;71.55;98179.00;5033954;28;20194;-58
2022/07/01 02:25:25;;;;;;;2.67;2.45;;;;;;;21.86;71.21;98173.25;5033982;28;20228;-58
2022/07/01 02:27:50;;;;;;;2.67;2.47;;;;;;;21.85;70.99;98166.34;5033944;28;20174;-58
2022/07/01 02:30:15;;;;;;;3.80;3.45;;;;;;;21.92;70.31;98174.34;5033305;28;20182;-58
2022/07/01 02:32:41;;;;;;;3.60;2.83;;;;;;;21.82;70.27;98163.25;5033853;28;20192;-58
2022/07/01 02:35:07;;;;;;;6.88;2.92;;;;;;;21.91;70.42;98172.72;5033774;28;20185;-58
2022/07/01 02:37:33;;;;;;;2.95;2.70;;;;;;;21.91;70.54;98193.81;5034056;28;20173;-58
2022/07/01 02:39:59;;;;;;;5.93;3.40;;;;;;;21.89;71.07;98195.78;5033691;28;20174;-58
2022/07/01 02:42:27;;;;;;;4.65;2.78;;;;;;;21.66;71.70;98200.25;5033626;28;20198;-58
2022/07/01 02:44:56;;;;;;;4.28;2.50;;;;;;;21.53;72.58;98198.25;5032354;28;20209;-58
2022/07/01 02:47:21;;;;;;;3.25;2.75;;;;;;;21.57;72.65;98201.34;5033880;28;20181;-58
2022/07/01 02:49:48;;;;;;;4.68;3.40;;;;;;;21.60;71.82;98182.53;5032328;28;20715;-58
2022/07/01 02:52:15;;;;;;;3.67;2.85;;;;;;;21.72;71.32;98196.94;5033451;28;20182;-58
2022/07/01 02:54:40;;;;;;;3.40;2.85;;;;;;;21.72;71.15;98205.66;5033491;28;20312;-58
2022/07/01 02:57:06;;;;;;;2.80;2.60;;;;;;;21.68;71.26;98207.03;5033399;28;20636;-58
2022/07/01 02:59:31;;;;;;;2.88;2.67;;;;;;;21.72;70.60;98207.47;5033611;28;20178;-58
2022/07/01 03:01:57;;;;;;;3.70;2.90;;;;;;;21.81;70.14;98216.94;5033062;28;20737;-58
2022/07/01 03:04:22;;;;;;;5.90;2.83;;;;;;;21.84;70.25;98212.13;5033208;28;20264;-58
2022/07/01 03:06:48;;;;;;;3.05;2.78;;;;;;;21.89;69.97;98201.88;5033746;28;20174;-58
2022/07/01 03:09:13;;;;;;;3.00;2.72;;;;;;;21.88;69.51;98196.78;5033167;28;20201;-58
2022/07/01 03:11:39;;;;;;;2.83;2.63;;;;;;;21.89;70.12;98201.88;5031883;28;20589;-58
2022/07/01 03:14:04;;;;;;;5.50;2.97;;;;;;;21.87;70.08;98210.97;5033125;28;20228;-58
2022/07/01 03:16:30;;;;;;;5.15;2.83;;;;;;;21.98;69.40;98215.78;5033048;28;20209;-58
2022/07/01 03:18:55;;;;;;;2.60;2.50;;;;;;;22.02;69.70;98217.88;5032988;28;20174;-58
2022/07/01 03:21:20;;;;;;;3.25;2.88;;;;;;;22.09;69.36;98216.13;5033138;28;20181;-58
2022/07/01 03:23:46;;;;;;;2.88;2.60;;;;;;;22.14;69.41;98216.41;5031540;28;20244;-58
2022/07/01 03:26:11;;;;;;;5.13;2.78;;;;;;;22.14;69.20;98215.63;5032874;28;20173;-58
2022/07/01 03:28:37;;;;;;;3.55;2.50;;;;;;;22.07;69.31;98212.03;5033058;28;20174;-58
2022/07/01 03:31:02;;;;;;;3.38;3.08;;;;;;;22.12;69.62;98218.44;5032773;28;20192;-58
2022/07/01 03:33:28;;;;;;;3.80;3.00;;;;;;;22.12;69.75;98217.59;5032685;28;20170;-58
2022/07/01 03:35:53;;;;;;;3.17;2.97;;;;;;;22.18;69.31;98219.50;5032692;28;20650;-58
2022/07/01 03:38:19;;;;;;;2.90;2.70;;;;;;;22.18;69.27;98206.31;5032676;28;20185;-58
2022/07/01 03:40:44;;;;;;;4.05;2.83;;;;;;;22.34;68.43;98217.50;5032393;28;20176;-58
2022/07/01 03:43:10;;;;;;;3.35;3.05;;;;;;;22.33;68.24;98221.13;5031843;28;20205;-58
2022/07/01 03:45:35;;;;;;;3.30;2.80;;;;;;;22.20;68.49;98209.63;5032411;28;20181;-58
2022/07/01 03:48:04;;;;;;;4.28;2.65;;;;;;;22.28;68.87;98230.59;5032744;28;20215;-58
2022/07/01 03:50:30;;;;;;;2.92;2.72;;;;;;;22.18;69.48;98224.78;5032462;28;20651;-58
2022/07/01 03:55:40;;;;;;;4.47;2.72;;;;;;;22.25;70.53;98230.97;5032869;28;20620;-58
2022/07/01 03:58:05;;;;;;;3.20;2.90;;;;;;;22.13;69.90;98216.59;5031089;28;20205;-58
2022/07/01 04:00:35;;;;;;;3.20;2.90;;;;;;;22.31;69.86;98222.34;5030757;28;20782;-58
2022/07/01 04:03:00;;;;;;;2.92;2.70;;;;;;;22.39;69.52;98228.34;5032449;28;20652;-58
2022/07/01 04:05:26;;;;;;;3.00;2.70;;;;;;;22.51;69.25;98221.63;5032248;28;20208;-58
2022/07/01 04:07:51;;;;;;;3.10;2.90;;;;;;;22.67;68.05;98220.59;5032152;28;20634;-58
2022/07/01 04:10:17;;;;;;;3.97;2.90;;;;;;;22.80;67.53;98220.72;5032412;28;20227;-58
2022/07/01 04:12:43;;;;;;;3.28;2.97;;;;;;;22.88;67.61;98217.97;5030875;28;20184;-58
2022/07/01 04:15:09;;;;;;;3.08;2.75;;;;;;;22.96;66.99;98223.16;5032062;28;20181;-58
2022/07/01 04:17:34;;;;;;;3.05;2.85;;;;;;;23.03;67.07;98221.38;5032250;28;20213;-58
2022/07/01 04:19:59;;;;;;;4.60;2.83;;;;;;;23.11;67.49;98218.63;5032007;28;20258;-58
2022/07/01 04:22:35;;;;;;;5.63;2.63;;;;;;;23.14;68.24;98219.06;5030700;28;20284;-58
2022/07/01 04:25:03;;;;;;;6.10;3.00;;;;;;;23.35;66.61;98210.34;5032001;28;20193;-57
2022/07/01 04:27:31;;;;;;;3.35;2.80;;;;;;;23.33;65.60;98205.28;5032037;28;20192;-60
2022/07/01 04:29:57;;;;;;;10.73;3.35;;;;;;;23.31;65.78;98222.31;5031922;28;20180;-58
2022/07/01 04:32:23;;;;;;;3.55;3.22;;;;;;;23.32;65.61;98216.81;5031909;28;20174;-58
2022/07/01 04:34:48;;;;;;;5.55;2.85;;;;;;;23.41;65.67;98226.25;5032169;28;20180;-58
2022/07/01 04:37:14;;;;;;;4.95;2.67;;;;;;;23.31;65.55;98220.47;5031907;28;20582;-58
2022/07/01 04:39:39;;;;;;;5.25;2.45;;;;;;;23.36;65.18;98222.56;5031923;28;20177;-58
2022/07/01 04:42:05;;;;;;;2.50;2.30;;;;;;;23.29;65.24;98224.31;5031704;28;20792;-58
2022/07/01 04:44:36;;;;;;;3.38;2.47;;;;;;;23.28;65.39;98220.88;5031773;28;20181;-58
2022/07/01 04:47:03;;;;;;;3.05;2.85;;;;;;;23.34;65.18;98235.13;5031890;28;20188;-58
2022/07/01 04:49:29;;;;;;;3.83;2.58;;;;;;;23.38;65.39;98215.25;5031803;28;20208;-59
2022/07/01 04:51:55;;;;;;;5.97;2.72;;;;;;;23.48;65.32;98221.84;5030522;28;20177;-60
2022/07/01 04:54:21;;;;;;;5.18;2.83;;;;;;;23.58;65.33;98226.81;5034837;28;20595;-59
2022/07/01 04:56:47;;;;;;;2.95;2.58;;;;;;;23.77;65.55;98227.78;5035901;28;20184;-57
2022/07/01 04:59:13;;;;;;;4.07;2.67;;;;;;;23.77;64.08;98226.16;5036645;28;20193;-59
2022/07/01 05:01:43;;;;;;;2.90;2.60;;;;;;;23.83;64.01;98230.69;5034105;28;20690;-59
2022/07/01 05:04:09;;;;;;;4.20;2.60;;;;;;;23.98;63.48;98233.03;5035775;28;20177;-58
2022/07/01 05:06:35;;;;;;;2.70;2.45;;;;;;;24.13;64.17;98232.13;5035418;28;20169;-58
2022/07/01 05:09:00;;;;;;;2.45;2.33;;;;;;;24.19;63.55;98238.25;5035317;28;20217;-58
2022/07/01 05:11:26;;;;;;;3.72;2.80;;;;;;;24.23;62.69;98244.81;5035414;28;20312;-58
2022/07/01 05:13:51;;;;;;;4.72;2.55;;;;;;;24.17;63.02;98241.31;5035380;28;20563;-58
2022/07/01 05:16:17;;;;;;;3.20;2.58;;;;;;;24.28;62.99;98242.41;5035261;28;20243;-58
2022/07/01 05:24:11;;;;;;;3.33;2.30;;;;;;;24.30;62.30;98240.38;5035461;28;20211;-59
2022/07/01 05:26:36;;;;;;;3.85;2.40;;;;;;;24.23;63.09;98243.19;5035074;28;20170;-59
2022/07/01 05:29:02;;;;;;;2.72;2.53;;;;;;;24.36;62.48;98236.94;5035101;28;20599;-58
2022/07/01 05:31:28;;;;;;;3.17;2.88;;;;;;;24.50;63.27;98251.84;5035279;28;20185;-58
2022/07/01 05:33:54;;;;;;;5.97;3.10;;;;;;;24.69;63.41;98251.19;5035193;28;20170;-58
2022/07/01 05:36:19;;;;;;;2.67;2.40;;;;;;;24.83;63.22;98250.19;5035214;28;20174;-58
2022/07/01 05:38:45;;;;;;;4.65;2.90;;;;;;;24.96;62.88;98252.09;5033637;28;20196;-58
2022/07/01 05:41:10;;;;;;;3.10;2.90;;;;;;;25.08;62.36;98256.59;5034810;28;20554;-58
2022/07/01 05:43:36;;;;;;;3.70;2.40;;;;;;;25.20;61.65;98248.88;5034740;28;20190;-58
2022/07/01 05:46:02;;;;;;;2.47;2.28;;;;;;;25.26;61.21;98243.63;5034771;28;20189;-59
2022/07/01 05:48:27;;;;;;;2.95;2.55;;;;;;;25.41;61.50;98244.25;5034990;28;20170;-59
2022/07/01 05:50:53;;;;;;;2.95;2.75;;;;;;;25.57;60.13;98253.66;5034939;28;20181;-59
2022/07/01 05:53:19;;;;;;;3.28;2.72;;;;;;;25.64;60.24;98251.81;5034892;28;20166;-58
2022/07/01 05:55:44;;;;;;;3.25;2.55;;;;;;;25.77;59.74;98249.19;5034815;28;20185;-58
2022/07/01 05:58:11;;;;;;;11.13;9.68;;;;;;;25.83;60.02;98253.66;5034470;28;20177;-58
2022/07/01 06:00:37;;;;;;;8.43;6.90;;;;;;;25.87;60.22;98253.03;5034410;28;20217;-59
2022/07/01 06:03:03;;;;;;;5.55;4.63;;;;;;;26.02;59.79;98260.81;5034649;28;20186;-59
2022/07/01 06:05:30;;;;;;;5.22;2.85;;;;;;;26.11;59.41;98260.38;5033363;28;20558;-59
2022/07/01 06:07:55;;;;;;;4.25;3.10;;;;;;;26.29;59.33;98265.88;5034560;28;20173;-59
2022/07/01 06:10:20;;;;;;;3.30;3.10;;;;;;;26.45;57.25;98254.81;5034337;28;20231;-59
2022/07/01 06:12:46;;;;;;;4.13;2.70;;;;;;;26.41;56.75;98260.75;5034217;28;20178;-59
2022/07/01 06:15:12;;;;;;;3.38;3.08;;;;;;;26.31;57.30;98266.47;5034740;28;20173;-59
2022/07/01 06:17:39;;;;;;;3.60;2.85;;;;;;;26.44;57.71;98266.47;5034156;28;20169;-59
2022/07/01 06:20:06;;;;;;;3.70;2.90;;;;;;;26.63;57.64;98257.63;5034047;28;20185;-59
2022/07/01 06:22:32;;;;;;;4.68;2.97;;;;;;;26.68;57.13;98260.50;5032700;28;20202;-59
2022/07/01 06:24:58;;;;;;;4.47;3.28;;;;;;;26.77;56.31;98261.88;5034326;28;20173;-58
2022/07/01 06:27:24;;;;;;;6.55;3.08;;;;;;;26.86;56.64;98259.78;5034034;28;20197;-59
2022/07/01 06:29:50;;;;;;;5.75;2.85;;;;;;;26.85;55.64;98264.31;5034148;28;20178;-59
2022/07/01 06:32:15;;;;;;;5.97;3.10;;;;;;;26.91;56.12;98267.94;5033660;28;20533;-59
2022/07/01 06:34:41;;;;;;;3.97;2.90;;;;;;;27.03;55.58;98268.91;5033831;28;20174;-59
2022/07/01 06:37:07;;;;;;;2.97;2.78;;;;;;;27.00;55.14;98270.13;5033854;28;20265;-59
2022/07/01 06:39:33;;;;;;;4.03;2.90;;;;;;;27.00;55.19;98267.47;5033664;28;20174;-59
2022/07/01 06:41:59;;;;;;;4.07;2.80;;;;;;;27.11;55.11;98269.47;5033714;28;20229;-59
2022/07/01 06:44:24;;;;;;;6.05;3.03;;;;;;;27.19;53.72;98273.75;5033674;28;20197;-59
2022/07/01 06:46:49;;;;;;;2.85;2.50;;;;;;;27.23;53.87;98273.13;5033626;28;20643;-59
2022/07/01 06:49:15;;;;;;;6.63;2.85;;;;;;;27.31;54.60;98266.75;5033573;28;20245;-59
2022/07/01 06:51:41;;;;;;;4.55;2.70;;;;;;;27.45;54.99;98268.28;5032295;28;20182;-59
2022/07/01 06:54:06;;;;;;;4.25;3.35;;;;;;;27.59;53.95;98262.66;5033452;28;20170;-58
2022/07/01 06:56:32;;;;;;;3.78;3.05;;;;;;;27.68;54.41;98261.38;5033702;28;20192;-59
2022/07/01 06:58:57;;;;;;;3.50;2.85;;;;;;;27.83;54.67;98271.72;5033429;28;20708;-59
2022/07/01 07:01:23;;;;;;;3.60;3.00;;;;;;;27.79;53.69;98267.84;5033214;28;20260;-58
2022/07/01 07:03:49;;;;;;;3.45;2.85;;;;;;;27.93;53.65;98266.72;5033256;28;20650;-59
2022/07/01 07:06:14;;;;;;;7.45;3.55;;;;;;;28.14;52.92;98271.63;5033548;28;20650;-58
2022/07/01 07:08:40;;;;;;;4.32;2.97;;;;;;;28.27;51.51;98263.53;5033434;28;20173;-58
2022/07/01 07:11:08;;;;;;;3.45;2.78;;;;;;;28.23;51.24;98267.66;5033430;28;20181;-58
2022/07/01 07:13:34;;;;;;;3.88;3.08;;;;;;;28.28;51.49;98262.50;5031818;28;20203;-58
2022/07/01 07:16:00;;;;;;;5.28;3.45;;;;;;;28.31;52.10;98262.88;5033483;28;20263;-58
2022/07/01 07:18:25;;;;;;;9.38;4.15;;;;;;;28.38;52.00;98263.63;5033312;28;20182;-59
2022/07/01 07:20:50;;;;;;;5.53;3.83;;;;;;;28.44;52.14;98262.75;5033184;28;20177;-59
2022/07/01 07:23:16;;;;;;;7.57;3.97;;;;;;;28.52;52.50;98256.34;5033162;28;20568;-58
2022/07/01 07:25:41;;;;;;;4.60;3.65;;;;;;;28.58;52.39;98250.13;5033206;28;20245;-59
2022/07/01 07:28:07;;;;;;;6.57;3.53;;;;;;;28.68;52.03;98259.19;5032836;28;20173;-58
2022/07/01 07:30:32;;;;;;;13.52;4.38;;;;;;;28.76;52.54;98261.59;5033051;28;20610;-59
2022/07/01 07:32:58;;;;;;;6.82;3.92;;;;;;;28.79;52.44;98255.78;5032760;28;20173;-58
2022/07/01 07:35:23;;;;;;;4.10;3.67;;;;;;;28.89;52.20;98263.25;5033021;28;20208;-58
2022/07/01 07:37:49;;;;;;;9.45;4.10;;;;;;;28.88;52.61;98257.13;5032705;28;20220;-58
2022/07/01 07:40:18;;;;;;;8.90;4.32;;;;;;;28.97;52.67;98263.78;5032633;28;20206;-59
2022/07/01 07:42:47;;;;;;;9.13;4.07;;;;;;;29.02;52.68;98263.94;5032796;28;20280;-59
2022/07/01 07:45:14;;;;;;;8.00;3.80;;;;;;;29.14;53.05;98270.13;5032554;28;20172;-58
2022/07/01 07:47:51;;;;;;;4.95;4.05;;;;;;;29.22;53.09;98272.47;5032809;28;20178;-59
2022/07/01 07:50:16;;;;;;;10.43;4.43;;;;;;;29.30;52.73;98274.81;5032485;28;20165;-59
2022/07/01 07:52:42;;;;;;;6.10;3.95;;;;;;;29.34;52.90;98267.19;5032455;28;20176;-58
2022/07/01 07:55:09;;;;;;;6.93;4.15;;;;;;;29.39;53.12;98273.44;5032972;28;20180;-59
2022/07/01 07:57:38;;;;;;;5.15;4.28;;;;;;;29.46;52.63;98268.84;5032578;28;20174;-59
2022/07/01 08:00:06;;;;;;;8.68;4.10;;;;;;;29.52;52.50;98275.94;5032610;28;20655;-59
2022/07/01 08:02:32;;;;;;;7.32;4.32;;;;;;;29.58;52.91;98271.56;5031988;28;20296;-59
2022/07/01 08:04:57;;;;;;;5.68;4.03;;;;;;;29.62;53.41;98272.75;5032277;28;20256;-59
2022/07/01 08:07:22;;;;;;;9.98;3.95;;;;;;;29.64;53.52;98271.47;5032215;28;20170;-59
2022/07/01 08:09:49;;;;;;;5.97;3.75;;;;;;;29.72;53.14;98268.47;5032176;28;20173;-59
2022/07/01 08:12:15;;;;;;;4.53;3.97;;;;;;;29.75;53.40;98273.34;5032133;28;20174;-59
2022/07/01 08:14:41;;;;;;;9.70;3.90;;;;;;;29.82;53.26;98270.56;5030878;28;20189;-58
2022/07/01 08:17:06;;;;;;;7.10;4.10;;;;;;;29.83;53.60;98275.69;5032126;28;20169;-59
2022/07/01 08:19:31;;;;;;;6.47;4.10;;;;;;;29.88;53.74;98270.47;5032671;28;20170;-58
2022/07/01 08:21:57;;;;;;;8.30;4.35;;;;;;;29.94;53.14;98277.56;5032025;28;20161;-58
2022/07/01 08:24:22;;;;;;;4.53;3.35;;;;;;;29.98;52.50;98273.38;5032237;28;20181;-58
2022/07/01 08:26:48;;;;;;;4.03;3.05;;;;;;;30.00;52.52;98265.94;5030500;28;20182;-58
2022/07/01 08:29:13;;;;;;;6.00;3.78;;;;;;;29.96;51.54;98255.97;5031276;28;20601;-58
2022/07/01 08:31:39;;;;;;;7.00;3.92;;;;;;;29.99;52.34;98267.00;5032222;28;20216;-58
2022/07/01 08:34:05;;;;;;;4.95;3.83;;;;;;;30.03;51.29;98259.34;5031941;28;20174;-58
2022/07/01 08:36:30;;;;;;;4.10;2.72;;;;;;;30.10;51.22;98263.56;5031963;28;20208;-59
2022/07/01 08:38:55;;;;;;;6.70;4.45;;;;;;;30.12;50.99;98258.78;5031926;28;20228;-58
2022/07/01 08:41:21;;;;;;;9.35;5.03;;;;;;;30.18;50.84;98257.84;5031874;28;20196;-59
2022/07/01 08:43:46;;;;;;;10.32;3.70;;;;;;;30.20;51.07;98261.09;5031731;28;20197;-58
2022/07/01 08:46:12;;;;;;;3.83;3.53;;;;;;;30.26;50.99;98260.16;5032048;28;20174;-58
2022/07/01 08:48:42;;;;;;;4.82;3.85;;;;;;;30.33;50.73;98266.22;5032010;28;20178;-58
2022/07/01 08:51:07;;;;;;;8.05;3.92;;;;;;;30.40;50.14;98266.91;5031984;28;20174;-58
2022/07/01 08:53:34;;;;;;;9.80;3.40;;;;;;;30.40;49.78;98258.91;5031620;28;20169;-58
2022/07/01 08:58:45;;;;;;;3.20;2.92;;;;;;;30.57;49.47;98251.78;5031877;28;20164;-59
2022/07/01 09:01:17;;;;;;;4.05;3.10;;;;;;;30.68;49.60;98258.19;5031514;28;20214;-58
2022/07/01 09:03:45;;;;;;;7.25;2.92;;;;;;;30.74;49.41;98259.91;5030121;28;20205;-59
2022/07/01 09:06:13;;;;;;;3.38;3.08;;;;;;;30.80;48.46;98257.09;5030262;28;20201;-59
2022/07/01 09:08:39;;;;;;;7.20;3.70;;;;;;;30.89;48.14;98255.66;5031824;28;20170;-58
2022/07/01 09:11:15;;;;;;;6.03;4.05;;;;;;;30.90;47.41;98241.25;5031544;28;20224;-58
2022/07/01 09:13:41;;;;;;;3.53;3.22;;;;;;;31.00;47.03;98246.78;5030344;28;20638;-59
2022/07/01 09:16:14;;;;;;;4.72;3.35;;;;;;;31.07;47.60;98244.00;5031546;28;20173;-58
2022/07/01 09:18:40;;;;;;;4.72;3.00;;;;;;;31.20;46.23;98246.41;5031822;28;20607;-58
2022/07/01 09:21:16;;;;;;;4.03;2.75;;;;;;;31.26;45.63;98248.94;5030221;28;20174;-59
2022/07/01 09:23:41;;;;;;;5.43;3.30;;;;;;;31.24;45.13;98240.31;5031888;28;20251;-59
2022/07/01 09:26:07;;;;;;;3.58;2.95;;;;;;;31.32;44.64;98242.63;5031360;28;20565;-59
2022/07/01 09:28:32;;;;;;;3.53;2.92;;;;;;;31.44;44.85;98248.72;5030057;28;20184;-58
2022/07/01 09:30:58;;;;;;;5.82;2.80;;;;;;;31.49;44.33;98256.81;5031580;28;20266;-59
2022/07/01 09:33:28;;;;;;;4.60;3.22;;;;;;;31.50;43.62;98247.75;5031267;28;20201;-59
2022/07/01 09:35:55;;;;;;;3.60;2.60;;;;;;;31.53;42.95;98252.59;5031860;28;20181;-59
2022/07/01 09:38:23;;;;;;;4.82;2.95;;;;;;;31.59;43.44;98250.84;5031326;28;20256;-59
2022/07/01 09:41:00;;;;;;;2.95;2.65;;;;;;;31.65;43.55;98244.53;5033800;28;20185;-59
2022/07/01 09:43:26;;;;;;;6.60;2.65;;;;;;;31.78;42.68;98250.38;5035373;28;20194;-58
2022/07/01 09:45:53;;;;;;;5.72;2.60;;;;;;;31.83;42.08;98247.78;5034805;28;20170;-59
2022/07/01 09:48:18;;;;;;;8.02;2.72;;;;;;;31.91;41.73;98239.38;5034773;28;20676;-59
2022/07/01 09:50:45;;;;;;;6.93;3.00;;;;;;;32.04;40.86;98246.22;5034973;28;20173;-58
2022/07/01 09:53:11;;;;;;;3.30;2.90;;;;;;;32.13;40.75;98248.25;5034679;28;20169;-58
2022/07/01 09:55:37;;;;;;;6.60;3.03;;;;;;;32.21;38.04;98247.84;5034583;28;20257;-58
2022/07/01 09:58:02;;;;;;;5.38;2.95;;;;;;;32.06;37.96;98210.13;5034420;28;20216;-58
2022/07/01 10:00:31;;;;;;;5.32;2.63;;;;;;;32.26;39.19;98231.88;5034354;28;20181;-58
2022/07/01 10:02:57;;;;;;;7.75;3.15;;;;;;;32.39;38.66;98242.22;5035040;28;20194;-59
2022/07/01 10:05:25;;;;;;;5.95;2.95;;;;;;;32.47;39.56;98244.47;5034772;28;20249;-59
2022/07/01 10:08:23;;;;;;;7.00;2.60;;;;;;;32.54;39.72;98246.97;5034422;28;20174;-59
2022/07/01 10:10:58;;;;;;;6.72;3.00;;;;;;;32.66;38.64;98237.78;5034674;28;20245;-58
2022/07/01 10:13:26;;;;;;;4.32;2.85;;;;;;;32.77;38.31;98238.72;5034252;28;20158;-59
2022/07/01 10:15:54;;;;;;;9.60;3.13;;;;;;;32.84;37.58;98234.81;5034495;28;20204;-58
2022/07/01 10:18:27;;;;;;;5.80;2.60;;;;;;;32.89;37.34;98236.72;5034141;28;20178;-59
2022/07/01 10:20:54;;;;;;;6.32;3.33;;;;;;;32.78;37.14;98235.81;5034553;28;20169;-58
2022/07/01 10:23:21;;;;;;;4.47;2.45;;;;;;;32.95;36.91;98231.19;5033032;28;20259;-59
2022/07/01 10:25:49;;;;;;;9.00;2.92;;;;;;;32.98;35.84;98233.34;5034364;28;20181;-58
2022/07/01 10:28:19;;;;;;;5.28;3.03;;;;;;;33.11;36.08;98230.25;5034049;28;20173;-59
2022/07/01 10:31:15;;;;;;;8.10;3.28;;;;;;;33.28;36.41;98232.88;5034497;28;20173;-58
2022/07/01 10:33:45;;;;;;;4.63;3.03;;;;;;;33.46;36.70;98224.47;5034074;28;20173;-59
2022/07/01 10:36:15;;;;;;;8.05;3.10;;;;;;;33.63;35.86;98225.16;5034137;28;20177;-59
2022/07/01 10:39:13;;;;;;;5.75;3.42;;;;;;;33.82;37.16;98221.84;5033799;28;20174;-59
2022/07/01 10:41:41;;;;;;;3.35;2.47;;;;;;;33.88;33.22;98220.81;5033791;28;20639;-59
2022/07/01 10:44:14;;;;;;;8.77;3.03;;;;;;;33.97;32.67;98218.47;5033687;28;20225;-59
2022/07/01 10:46:59;;;;;;;6.78;3.47;;;;;;;34.04;33.72;98211.78;5034293;28;20697;-58
2022/07/01 10:49:36;;;;;;;3.40;3.00;;;;;;;34.24;33.72;98217.28;5033890;28;20162;-59
2022/07/01 10:52:05;;;;;;;4.82;2.97;;;;;;;34.42;32.21;98219.56;5033114;28;20174;-59
2022/07/01 10:54:34;;;;;;;4.60;2.53;;;;;;;34.61;32.42;98215.34;5033779;28;20202;-59
2022/07/01 10:57:23;;;;;;;3.65;2.72;;;;;;;34.83;30.98;98213.31;5033659;28;20204;-58
2022/07/01 11:00:09;;;;;;;4.50;2.80;;;;;;;35.06;32.07;98212.81;5032191;28;20304;-58
2022/07/01 11:02:39;;;;;;;5.97;2.90;;;;;;;35.22;31.45;98217.19;5025676;28;20245;-58
2022/07/01 11:05:05;;;;;;;7.78;4.03;;;;;;;35.04;32.50;98212.28;5033548;28;20173;-59
2022/07/01 11:07:35;;;;;;;4.75;3.20;;;;;;;35.14;32.88;98214.19;5033304;28;20180;-58
2022/07/01 11:10:03;;;;;;;12.30;3.65;;;;;;;35.36;33.40;98207.53;5033577;28;20206;-58
2022/07/01 11:12:29;;;;;;;5.10;3.33;;;;;;;35.46;32.86;98206.72;5033144;28;20588;-59
2022/07/01 11:14:58;;;;;;;7.15;3.30;;;;;;;35.57;32.44;98208.34;5033381;28;20204;-59
2022/07/01 11:17:25;;;;;;;4.38;3.03;;;;;;;35.71;32.06;98204.88;5033007;28;20759;-58
2022/07/01 11:19:58;;;;;;;8.25;3.08;;;;;;;35.89;31.99;98212.38;5032992;28;20568;-59
2022/07/01 11:22:34;;;;;;;7.68;3.08;;;;;;;36.13;32.17;98208.03;5033126;28;20276;-59
2022/07/01 11:25:06;;;;;;;6.53;3.20;;;;;;;36.29;31.35;98204.25;5032954;28;20696;-59
2022/07/01 11:27:32;;;;;;;7.70;3.05;;;;;;;36.27;31.23;98202.91;5031546;28;20251;-59
2022/07/01 11:30:05;;;;;;;11.23;3.28;;;;;;;36.10;31.58;98202.38;5033093;28;20251;-59
2022/07/01 11:32:36;;;;;;;6.63;2.90;;;;;;;36.05;31.67;98195.13;5033034;28;20166;-59
2022/07/01 11:35:03;;;;;;;7.78;3.25;;;;;;;36.07;31.54;98189.47;5033530;28;20176;-59
2022/07/01 11:40:17;;;;;;;6.65;3.20;;;;;;;35.78;32.67;98183.06;5033469;28;20185;-59
2022/07/01 11:42:43;;;;;;;6.55;3.15;;;;;;;35.86;32.79;98177.94;5032777;28;20201;-59
2022/07/01 11:45:09;;;;;;;5.95;3.05;;;;;;;35.91;32.44;98183.28;5032536;28;20177;-59
2022/07/01 11:47:35;;;;;;;4.43;2.88;;;;;;;35.94;31.65;98177.34;5032806;28;20209;-59